Terminal Aerodrome Forecast
Issued by NWS

Home | Current Version | Previous Version | Text Only | Print | Product List | Glossary On
Versions: 1 2 3 4 5 6 7 8 9 10 11 12 13 14 15 16 17 18 19 20 21 22 23
000
FTUS44 KLIX 232339
TAFHUM
TAF
KHUM 232339Z 2400/2424 14007KT P6SM FEW250
     FM240400 13007KT P6SM BKN015
     FM241400 14013KT P6SM BKN020
     FM241600 15016G26KT P6SM BKN035
     FM242200 16015G23KT P6SM BKN030=

USA.gov is the U.S. government's official web portal to all federal, state and local government web resources and services.